sensor_id;sensor_type;location;lat;lon;timestamp;P1;durP1;ratioP1;P2;durP2;ratioP2
6823;SDS011;58633;49.470;11.004;2024-01-30T00:02:24;12.07;;;6.40;;
6823;SDS011;58633;49.470;11.004;2024-01-30T00:04:50;11.20;;;6.60;;
6823;SDS011;58633;49.470;11.004;2024-01-30T00:07:16;12.00;;;6.60;;
6823;SDS011;58633;49.470;11.004;2024-01-30T00:09:41;11.53;;;6.63;;
6823;SDS011;58633;49.470;11.004;2024-01-30T00:12:07;9.20;;;6.13;;
6823;SDS011;58633;49.470;11.004;2024-01-30T00:14:33;9.57;;;6.10;;
6823;SDS011;58633;49.470;11.004;2024-01-30T00:16:58;12.50;;;6.33;;
6823;SDS011;58633;49.470;11.004;2024-01-30T00:19:24;11.63;;;6.60;;
6823;SDS011;58633;49.470;11.004;2024-01-30T00:21:49;10.37;;;6.40;;
6823;SDS011;58633;49.470;11.004;2024-01-30T00:24:15;12.77;;;6.90;;
6823;SDS011;58633;49.470;11.004;2024-01-30T00:26:40;13.43;;;6.50;;
6823;SDS011;58633;49.470;11.004;2024-01-30T00:29:06;9.70;;;6.40;;
6823;SDS011;58633;49.470;11.004;2024-01-30T00:31:32;11.20;;;6.43;;
6823;SDS011;58633;49.470;11.004;2024-01-30T00:33:57;13.03;;;6.67;;
6823;SDS011;58633;49.470;11.004;2024-01-30T00:36:23;12.90;;;6.97;;
6823;SDS011;58633;49.470;11.004;2024-01-30T00:38:48;12.70;;;6.93;;
6823;SDS011;58633;49.470;11.004;2024-01-30T00:41:14;10.47;;;6.67;;
6823;SDS011;58633;49.470;11.004;2024-01-30T00:43:42;13.57;;;7.13;;
6823;SDS011;58633;49.470;11.004;2024-01-30T00:46:07;11.77;;;7.43;;
6823;SDS011;58633;49.470;11.004;2024-01-30T00:48:33;10.87;;;6.60;;
6823;SDS011;58633;49.470;11.004;2024-01-30T00:50:58;11.57;;;7.13;;
6823;SDS011;58633;49.470;11.004;2024-01-30T00:53:24;12.20;;;6.00;;
6823;SDS011;58633;49.470;11.004;2024-01-30T00:55:50;10.27;;;5.90;;
6823;SDS011;58633;49.470;11.004;2024-01-30T00:58:15;10.80;;;6.17;;
6823;SDS011;58633;49.470;11.004;2024-01-30T01:00:41;9.77;;;5.37;;
6823;SDS011;58633;49.470;11.004;2024-01-30T01:03:06;10.50;;;5.70;;
6823;SDS011;58633;49.470;11.004;2024-01-30T01:05:32;8.87;;;5.37;;
6823;SDS011;58633;49.470;11.004;2024-01-30T01:07:58;7.77;;;5.37;;
6823;SDS011;58633;49.470;11.004;2024-01-30T01:10:23;9.63;;;5.70;;
6823;SDS011;58633;49.470;11.004;2024-01-30T01:12:49;8.60;;;5.83;;
6823;SDS011;58633;49.470;11.004;2024-01-30T01:15:14;9.33;;;5.90;;
6823;SDS011;58633;49.470;11.004;2024-01-30T01:17:41;8.10;;;5.07;;
6823;SDS011;58633;49.470;11.004;2024-01-30T01:20:07;8.90;;;5.37;;
6823;SDS011;58633;49.470;11.004;2024-01-30T01:22:33;9.30;;;5.63;;
6823;SDS011;58633;49.470;11.004;2024-01-30T01:25:00;9.27;;;5.37;;
6823;SDS011;58633;49.470;11.004;2024-01-30T01:27:25;8.17;;;5.40;;
6823;SDS011;58633;49.470;11.004;2024-01-30T01:29:52;7.53;;;5.57;;
6823;SDS011;58633;49.470;11.004;2024-01-30T01:32:18;6.73;;;5.23;;
6823;SDS011;58633;49.470;11.004;2024-01-30T01:34:44;7.90;;;5.30;;
6823;SDS011;58633;49.470;11.004;2024-01-30T01:37:10;7.87;;;5.40;;
6823;SDS011;58633;49.470;11.004;2024-01-30T01:39:35;8.00;;;4.83;;
6823;SDS011;58633;49.470;11.004;2024-01-30T01:42:01;8.60;;;5.33;;
6823;SDS011;58633;49.470;11.004;2024-01-30T01:44:27;8.33;;;4.70;;
6823;SDS011;58633;49.470;11.004;2024-01-30T01:46:52;9.93;;;5.80;;
6823;SDS011;58633;49.470;11.004;2024-01-30T01:49:19;9.30;;;5.50;;
6823;SDS011;58633;49.470;11.004;2024-01-30T01:51:45;16.37;;;9.10;;
6823;SDS011;58633;49.470;11.004;2024-01-30T01:54:13;13.93;;;7.47;;
6823;SDS011;58633;49.470;11.004;2024-01-30T01:56:39;11.30;;;6.90;;
6823;SDS011;58633;49.470;11.004;2024-01-30T01:59:06;12.73;;;7.20;;
6823;SDS011;58633;49.470;11.004;2024-01-30T02:01:33;12.77;;;6.87;;
6823;SDS011;58633;49.470;11.004;2024-01-30T02:04:00;11.93;;;6.67;;
6823;SDS011;58633;49.470;11.004;2024-01-30T02:06:26;7.00;;;5.03;;
6823;SDS011;58633;49.470;11.004;2024-01-30T02:08:52;7.03;;;4.90;;
6823;SDS011;58633;49.470;11.004;2024-01-30T02:11:18;10.97;;;5.00;;
6823;SDS011;58633;49.470;11.004;2024-01-30T02:13:45;7.30;;;5.03;;
6823;SDS011;58633;49.470;11.004;2024-01-30T02:16:10;9.07;;;5.10;;
6823;SDS011;58633;49.470;11.004;2024-01-30T02:18:36;9.57;;;4.83;;
6823;SDS011;58633;49.470;11.004;2024-01-30T02:21:07;6.57;;;4.90;;
6823;SDS011;58633;49.470;11.004;2024-01-30T02:23:33;7.67;;;5.40;;
6823;SDS011;58633;49.470;11.004;2024-01-30T02:25:59;7.87;;;4.97;;
6823;SDS011;58633;49.470;11.004;2024-01-30T02:28:25;9.37;;;5.30;;
6823;SDS011;58633;49.470;11.004;2024-01-30T02:30:51;6.83;;;5.27;;
6823;SDS011;58633;49.470;11.004;2024-01-30T02:33:16;8.73;;;5.00;;
6823;SDS011;58633;49.470;11.004;2024-01-30T02:35:42;9.93;;;5.33;;
6823;SDS011;58633;49.470;11.004;2024-01-30T02:38:07;9.10;;;5.53;;
6823;SDS011;58633;49.470;11.004;2024-01-30T02:40:33;8.23;;;5.17;;
6823;SDS011;58633;49.470;11.004;2024-01-30T02:42:59;6.07;;;4.60;;
6823;SDS011;58633;49.470;11.004;2024-01-30T02:45:26;6.87;;;5.10;;
6823;SDS011;58633;49.470;11.004;2024-01-30T02:47:51;7.27;;;5.17;;
6823;SDS011;58633;49.470;11.004;2024-01-30T02:50:17;9.70;;;5.50;;
6823;SDS011;58633;49.470;11.004;2024-01-30T02:52:42;8.73;;;5.37;;
6823;SDS011;58633;49.470;11.004;2024-01-30T02:55:11;8.73;;;5.13;;
6823;SDS011;58633;49.470;11.004;2024-01-30T02:57:38;8.43;;;5.00;;
6823;SDS011;58633;49.470;11.004;2024-01-30T03:00:04;6.93;;;4.63;;
6823;SDS011;58633;49.470;11.004;2024-01-30T03:02:31;8.63;;;5.20;;
6823;SDS011;58633;49.470;11.004;2024-01-30T03:04:58;7.30;;;5.07;;
6823;SDS011;58633;49.470;11.004;2024-01-30T03:07:24;10.03;;;5.23;;
6823;SDS011;58633;49.470;11.004;2024-01-30T03:09:49;8.07;;;5.47;;
6823;SDS011;58633;49.470;11.004;2024-01-30T03:12:15;7.57;;;5.87;;
6823;SDS011;58633;49.470;11.004;2024-01-30T03:14:40;8.53;;;5.27;;
6823;SDS011;58633;49.470;11.004;2024-01-30T03:17:06;9.67;;;5.30;;
6823;SDS011;58633;49.470;11.004;2024-01-30T03:19:31;7.83;;;5.40;;
6823;SDS011;58633;49.470;11.004;2024-01-30T03:21:57;13.73;;;5.67;;
6823;SDS011;58633;49.470;11.004;2024-01-30T03:24:23;8.77;;;5.77;;
6823;SDS011;58633;49.470;11.004;2024-01-30T03:26:48;8.00;;;5.47;;
6823;SDS011;58633;49.470;11.004;2024-01-30T03:29:14;7.17;;;5.20;;
6823;SDS011;58633;49.470;11.004;2024-01-30T03:31:40;8.80;;;5.50;;
6823;SDS011;58633;49.470;11.004;2024-01-30T03:34:06;8.97;;;5.47;;
6823;SDS011;58633;49.470;11.004;2024-01-30T03:36:31;9.80;;;6.20;;
6823;SDS011;58633;49.470;11.004;2024-01-30T03:38:59;9.20;;;5.97;;
6823;SDS011;58633;49.470;11.004;2024-01-30T03:41:25;7.67;;;5.57;;
6823;SDS011;58633;49.470;11.004;2024-01-30T03:43:50;9.57;;;5.63;;
6823;SDS011;58633;49.470;11.004;2024-01-30T03:46:16;7.93;;;5.37;;
6823;SDS011;58633;49.470;11.004;2024-01-30T03:48:41;8.77;;;5.90;;
6823;SDS011;58633;49.470;11.004;2024-01-30T03:51:07;7.43;;;5.40;;
6823;SDS011;58633;49.470;11.004;2024-01-30T03:53:33;8.40;;;5.50;;
6823;SDS011;58633;49.470;11.004;2024-01-30T03:55:59;11.63;;;5.57;;
6823;SDS011;58633;49.470;11.004;2024-01-30T03:58:24;7.30;;;5.27;;
6823;SDS011;58633;49.470;11.004;2024-01-30T04:00:50;9.93;;;5.60;;
6823;SDS011;58633;49.470;11.004;2024-01-30T04:03:15;7.07;;;5.80;;
6823;SDS011;58633;49.470;11.004;2024-01-30T04:05:41;7.87;;;5.53;;
6823;SDS011;58633;49.470;11.004;2024-01-30T04:08:07;10.43;;;6.77;;
6823;SDS011;58633;49.470;11.004;2024-01-30T04:10:33;8.97;;;5.87;;
6823;SDS011;58633;49.470;11.004;2024-01-30T04:12:59;9.13;;;5.70;;
6823;SDS011;58633;49.470;11.004;2024-01-30T04:15:25;11.40;;;5.73;;
6823;SDS011;58633;49.470;11.004;2024-01-30T04:17:50;8.73;;;5.50;;
6823;SDS011;58633;49.470;11.004;2024-01-30T04:20:16;9.07;;;6.07;;
6823;SDS011;58633;49.470;11.004;2024-01-30T04:22:45;9.70;;;5.80;;
6823;SDS011;58633;49.470;11.004;2024-01-30T04:25:11;9.60;;;6.43;;
6823;SDS011;58633;49.470;11.004;2024-01-30T04:27:37;8.83;;;5.80;;
6823;SDS011;58633;49.470;11.004;2024-01-30T04:30:03;9.37;;;6.00;;
6823;SDS011;58633;49.470;11.004;2024-01-30T04:32:29;10.93;;;5.80;;
6823;SDS011;58633;49.470;11.004;2024-01-30T04:34:55;12.50;;;6.53;;
6823;SDS011;58633;49.470;11.004;2024-01-30T04:37:20;8.93;;;6.87;;
6823;SDS011;58633;49.470;11.004;2024-01-30T04:39:46;10.03;;;6.07;;
6823;SDS011;58633;49.470;11.004;2024-01-30T04:42:12;12.97;;;6.57;;
6823;SDS011;58633;49.470;11.004;2024-01-30T04:44:37;9.83;;;5.90;;
6823;SDS011;58633;49.470;11.004;2024-01-30T04:47:03;8.33;;;5.53;;
6823;SDS011;58633;49.470;11.004;2024-01-30T04:49:31;8.87;;;5.90;;
6823;SDS011;58633;49.470;11.004;2024-01-30T04:51:56;11.57;;;6.23;;
6823;SDS011;58633;49.470;11.004;2024-01-30T04:54:22;10.43;;;6.00;;
6823;SDS011;58633;49.470;11.004;2024-01-30T04:56:48;7.57;;;5.70;;
6823;SDS011;58633;49.470;11.004;2024-01-30T04:59:14;7.33;;;5.50;;
6823;SDS011;58633;49.470;11.004;2024-01-30T05:01:39;9.57;;;6.43;;
6823;SDS011;58633;49.470;11.004;2024-01-30T05:04:07;11.37;;;6.13;;
6823;SDS011;58633;49.470;11.004;2024-01-30T05:06:33;12.27;;;6.70;;
6823;SDS011;58633;49.470;11.004;2024-01-30T05:08:58;9.37;;;5.67;;
6823;SDS011;58633;49.470;11.004;2024-01-30T05:11:24;11.03;;;6.90;;
6823;SDS011;58633;49.470;11.004;2024-01-30T05:13:49;14.63;;;6.63;;
6823;SDS011;58633;49.470;11.004;2024-01-30T05:16:15;12.30;;;7.03;;
6823;SDS011;58633;49.470;11.004;2024-01-30T05:18:40;14.00;;;6.90;;
6823;SDS011;58633;49.470;11.004;2024-01-30T05:21:06;10.53;;;6.67;;
6823;SDS011;58633;49.470;11.004;2024-01-30T05:23:31;9.97;;;6.33;;
6823;SDS011;58633;49.470;11.004;2024-01-30T05:25:57;8.43;;;5.90;;
6823;SDS011;58633;49.470;11.004;2024-01-30T05:28:25;11.43;;;7.00;;
6823;SDS011;58633;49.470;11.004;2024-01-30T05:30:51;11.00;;;6.80;;
6823;SDS011;58633;49.470;11.004;2024-01-30T05:33:17;12.77;;;6.83;;
6823;SDS011;58633;49.470;11.004;2024-01-30T05:35:42;9.80;;;7.00;;
6823;SDS011;58633;49.470;11.004;2024-01-30T05:38:08;11.43;;;6.70;;
6823;SDS011;58633;49.470;11.004;2024-01-30T05:40:33;12.07;;;6.47;;
6823;SDS011;58633;49.470;11.004;2024-01-30T05:42:59;10.27;;;6.50;;
6823;SDS011;58633;49.470;11.004;2024-01-30T05:45:26;13.63;;;7.30;;
6823;SDS011;58633;49.470;11.004;2024-01-30T05:47:52;9.40;;;6.67;;
6823;SDS011;58633;49.470;11.004;2024-01-30T05:50:17;9.37;;;7.07;;
6823;SDS011;58633;49.470;11.004;2024-01-30T05:52:44;9.60;;;6.60;;
6823;SDS011;58633;49.470;11.004;2024-01-30T05:55:09;11.00;;;6.63;;
6823;SDS011;58633;49.470;11.004;2024-01-30T05:57:36;11.90;;;6.50;;
6823;SDS011;58633;49.470;11.004;2024-01-30T06:00:02;12.97;;;7.00;;
6823;SDS011;58633;49.470;11.004;2024-01-30T06:02:29;11.07;;;6.97;;
6823;SDS011;58633;49.470;11.004;2024-01-30T06:04:54;11.93;;;7.23;;
6823;SDS011;58633;49.470;11.004;2024-01-30T06:07:20;11.63;;;6.90;;
6823;SDS011;58633;49.470;11.004;2024-01-30T06:09:45;12.87;;;7.57;;
6823;SDS011;58633;49.470;11.004;2024-01-30T06:12:11;12.40;;;6.90;;
6823;SDS011;58633;49.470;11.004;2024-01-30T06:14:37;11.50;;;6.90;;
6823;SDS011;58633;49.470;11.004;2024-01-30T06:17:03;12.27;;;7.03;;
6823;SDS011;58633;49.470;11.004;2024-01-30T06:19:28;12.97;;;7.30;;
6823;SDS011;58633;49.470;11.004;2024-01-30T06:21:54;11.77;;;7.47;;
6823;SDS011;58633;49.470;11.004;2024-01-30T06:24:19;12.03;;;7.00;;
6823;SDS011;58633;49.470;11.004;2024-01-30T06:26:45;11.67;;;7.27;;
6823;SDS011;58633;49.470;11.004;2024-01-30T06:29:10;10.50;;;7.20;;
6823;SDS011;58633;49.470;11.004;2024-01-30T06:31:40;12.23;;;7.60;;
6823;SDS011;58633;49.470;11.004;2024-01-30T06:34:06;10.87;;;7.40;;
6823;SDS011;58633;49.470;11.004;2024-01-30T06:36:32;11.50;;;7.40;;
6823;SDS011;58633;49.470;11.004;2024-01-30T06:38:58;16.53;;;7.67;;
6823;SDS011;58633;49.470;11.004;2024-01-30T06:41:23;12.47;;;7.57;;
6823;SDS011;58633;49.470;11.004;2024-01-30T06:43:49;12.53;;;7.80;;
6823;SDS011;58633;49.470;11.004;2024-01-30T06:46:15;11.43;;;7.70;;
6823;SDS011;58633;49.470;11.004;2024-01-30T06:48:41;16.70;;;8.20;;
6823;SDS011;58633;49.470;11.004;2024-01-30T06:51:09;14.20;;;7.97;;
6823;SDS011;58633;49.470;11.004;2024-01-30T06:53:35;10.00;;;7.50;;
6823;SDS011;58633;49.470;11.004;2024-01-30T06:56:01;14.47;;;7.80;;
6823;SDS011;58633;49.470;11.004;2024-01-30T06:58:27;15.33;;;8.07;;
6823;SDS011;58633;49.470;11.004;2024-01-30T07:00:54;16.47;;;8.67;;
6823;SDS011;58633;49.470;11.004;2024-01-30T07:03:19;15.90;;;8.17;;
6823;SDS011;58633;49.470;11.004;2024-01-30T07:05:45;14.97;;;8.37;;
6823;SDS011;58633;49.470;11.004;2024-01-30T07:08:10;15.47;;;8.50;;
6823;SDS011;58633;49.470;11.004;2024-01-30T07:10:36;15.17;;;8.20;;
6823;SDS011;58633;49.470;11.004;2024-01-30T07:13:01;16.30;;;8.53;;
6823;SDS011;58633;49.470;11.004;2024-01-30T07:15:29;13.23;;;8.00;;
6823;SDS011;58633;49.470;11.004;2024-01-30T07:17:54;12.43;;;8.70;;
6823;SDS011;58633;49.470;11.004;2024-01-30T07:20:20;14.80;;;8.50;;
6823;SDS011;58633;49.470;11.004;2024-01-30T07:22:46;15.13;;;8.20;;
6823;SDS011;58633;49.470;11.004;2024-01-30T07:25:12;12.77;;;7.97;;
6823;SDS011;58633;49.470;11.004;2024-01-30T07:27:37;12.93;;;8.10;;
6823;SDS011;58633;49.470;11.004;2024-01-30T07:30:03;11.73;;;8.00;;
6823;SDS011;58633;49.470;11.004;2024-01-30T07:32:29;15.60;;;8.87;;
6823;SDS011;58633;49.470;11.004;2024-01-30T07:34:54;15.07;;;8.67;;
6823;SDS011;58633;49.470;11.004;2024-01-30T07:37:20;14.00;;;8.93;;
6823;SDS011;58633;49.470;11.004;2024-01-30T07:39:46;14.63;;;8.93;;
6823;SDS011;58633;49.470;11.004;2024-01-30T07:42:12;15.70;;;9.10;;
6823;SDS011;58633;49.470;11.004;2024-01-30T07:44:38;13.47;;;8.80;;
6823;SDS011;58633;49.470;11.004;2024-01-30T07:47:04;16.97;;;9.20;;
6823;SDS011;58633;49.470;11.004;2024-01-30T07:49:30;16.13;;;8.77;;
6823;SDS011;58633;49.470;11.004;2024-01-30T07:51:55;15.27;;;9.03;;
6823;SDS011;58633;49.470;11.004;2024-01-30T07:54:21;14.37;;;9.40;;
6823;SDS011;58633;49.470;11.004;2024-01-30T07:56:46;18.00;;;9.37;;
6823;SDS011;58633;49.470;11.004;2024-01-30T07:59:12;18.80;;;9.70;;
6823;SDS011;58633;49.470;11.004;2024-01-30T08:01:38;17.17;;;9.57;;
6823;SDS011;58633;49.470;11.004;2024-01-30T08:04:03;19.13;;;10.87;;
6823;SDS011;58633;49.470;11.004;2024-01-30T08:06:29;14.30;;;9.73;;
6823;SDS011;58633;49.470;11.004;2024-01-30T08:08:54;17.53;;;10.00;;
6823;SDS011;58633;49.470;11.004;2024-01-30T08:11:20;15.27;;;9.40;;
6823;SDS011;58633;49.470;11.004;2024-01-30T08:13:50;17.13;;;9.83;;
6823;SDS011;58633;49.470;11.004;2024-01-30T08:16:16;14.03;;;9.60;;
6823;SDS011;58633;49.470;11.004;2024-01-30T08:18:42;16.77;;;10.80;;
6823;SDS011;58633;49.470;11.004;2024-01-30T08:21:08;18.50;;;10.30;;
6823;SDS011;58633;49.470;11.004;2024-01-30T08:23:34;19.07;;;11.77;;
6823;SDS011;58633;49.470;11.004;2024-01-30T08:25:59;17.63;;;10.90;;
6823;SDS011;58633;49.470;11.004;2024-01-30T08:28:25;16.70;;;10.43;;
6823;SDS011;58633;49.470;11.004;2024-01-30T08:30:51;18.90;;;10.67;;
6823;SDS011;58633;49.470;11.004;2024-01-30T08:33:17;18.30;;;11.50;;
6823;SDS011;58633;49.470;11.004;2024-01-30T08:35:42;18.97;;;11.00;;
6823;SDS011;58633;49.470;11.004;2024-01-30T08:38:08;21.07;;;11.27;;
6823;SDS011;58633;49.470;11.004;2024-01-30T08:40:33;18.33;;;11.53;;
6823;SDS011;58633;49.470;11.004;2024-01-30T08:42:59;17.27;;;10.87;;
6823;SDS011;58633;49.470;11.004;2024-01-30T08:45:25;18.43;;;11.00;;
6823;SDS011;58633;49.470;11.004;2024-01-30T08:47:51;24.53;;;11.60;;
6823;SDS011;58633;49.470;11.004;2024-01-30T08:50:17;20.40;;;11.77;;
6823;SDS011;58633;49.470;11.004;2024-01-30T08:52:42;16.90;;;11.20;;
6823;SDS011;58633;49.470;11.004;2024-01-30T08:55:08;15.83;;;11.30;;
6823;SDS011;58633;49.470;11.004;2024-01-30T08:57:34;19.07;;;10.90;;
6823;SDS011;58633;49.470;11.004;2024-01-30T08:59:59;18.83;;;11.53;;
6823;SDS011;58633;49.470;11.004;2024-01-30T09:02:27;18.10;;;10.47;;
6823;SDS011;58633;49.470;11.004;2024-01-30T09:04:52;21.10;;;11.40;;
6823;SDS011;58633;49.470;11.004;2024-01-30T09:07:18;20.63;;;11.00;;
6823;SDS011;58633;49.470;11.004;2024-01-30T09:09:43;17.67;;;10.67;;
6823;SDS011;58633;49.470;11.004;2024-01-30T09:12:10;18.17;;;10.73;;
6823;SDS011;58633;49.470;11.004;2024-01-30T09:14:37;14.77;;;10.40;;
6823;SDS011;58633;49.470;11.004;2024-01-30T09:17:02;19.20;;;10.77;;
6823;SDS011;58633;49.470;11.004;2024-01-30T09:19:29;20.07;;;10.87;;
6823;SDS011;58633;49.470;11.004;2024-01-30T09:21:55;17.70;;;10.67;;
6823;SDS011;58633;49.470;11.004;2024-01-30T09:24:21;16.50;;;10.40;;
6823;SDS011;58633;49.470;11.004;2024-01-30T09:26:46;18.10;;;10.67;;
6823;SDS011;58633;49.470;11.004;2024-01-30T09:29:12;15.37;;;10.43;;
6823;SDS011;58633;49.470;11.004;2024-01-30T09:31:37;14.93;;;10.00;;
6823;SDS011;58633;49.470;11.004;2024-01-30T09:34:03;16.27;;;10.23;;
6823;SDS011;58633;49.470;11.004;2024-01-30T09:36:28;15.50;;;10.10;;
6823;SDS011;58633;49.470;11.004;2024-01-30T09:38:54;14.43;;;9.60;;
6823;SDS011;58633;49.470;11.004;2024-01-30T09:41:19;15.43;;;10.53;;
6823;SDS011;58633;49.470;11.004;2024-01-30T09:43:48;16.50;;;10.20;;
6823;SDS011;58633;49.470;11.004;2024-01-30T09:46:16;18.20;;;10.10;;
6823;SDS011;58633;49.470;11.004;2024-01-30T09:48:43;16.50;;;10.13;;
6823;SDS011;58633;49.470;11.004;2024-01-30T09:51:11;15.90;;;9.80;;
6823;SDS011;58633;49.470;11.004;2024-01-30T09:53:41;14.80;;;9.87;;
6823;SDS011;58633;49.470;11.004;2024-01-30T09:56:08;15.50;;;10.07;;
6823;SDS011;58633;49.470;11.004;2024-01-30T09:58:33;19.80;;;10.43;;
6823;SDS011;58633;49.470;11.004;2024-01-30T10:00:59;19.53;;;10.57;;
6823;SDS011;58633;49.470;11.004;2024-01-30T10:03:25;15.40;;;10.40;;
6823;SDS011;58633;49.470;11.004;2024-01-30T10:05:51;15.30;;;10.80;;
6823;SDS011;58633;49.470;11.004;2024-01-30T10:08:19;20.13;;;10.43;;
6823;SDS011;58633;49.470;11.004;2024-01-30T10:10:46;23.93;;;11.13;;
6823;SDS011;58633;49.470;11.004;2024-01-30T10:13:12;16.43;;;10.40;;
6823;SDS011;58633;49.470;11.004;2024-01-30T10:15:38;17.33;;;10.00;;
6823;SDS011;58633;49.470;11.004;2024-01-30T10:18:04;15.40;;;10.20;;
6823;SDS011;58633;49.470;11.004;2024-01-30T10:20:31;17.77;;;10.40;;
6823;SDS011;58633;49.470;11.004;2024-01-30T10:22:57;19.00;;;10.33;;
6823;SDS011;58633;49.470;11.004;2024-01-30T10:25:23;16.27;;;10.83;;
6823;SDS011;58633;49.470;11.004;2024-01-30T10:27:52;18.77;;;10.37;;
6823;SDS011;58633;49.470;11.004;2024-01-30T10:30:21;18.20;;;10.83;;
6823;SDS011;58633;49.470;11.004;2024-01-30T10:32:47;17.90;;;10.70;;
6823;SDS011;58633;49.470;11.004;2024-01-30T10:35:13;19.93;;;10.97;;
6823;SDS011;58633;49.470;11.004;2024-01-30T10:37:39;16.53;;;9.93;;
6823;SDS011;58633;49.470;11.004;2024-01-30T10:40:04;20.27;;;10.37;;
6823;SDS011;58633;49.470;11.004;2024-01-30T10:42:31;14.33;;;9.97;;
6823;SDS011;58633;49.470;11.004;2024-01-30T10:45:07;14.33;;;9.90;;
6823;SDS011;58633;49.470;11.004;2024-01-30T10:47:34;16.90;;;10.63;;
6823;SDS011;58633;49.470;11.004;2024-01-30T10:50:03;18.33;;;11.23;;
6823;SDS011;58633;49.470;11.004;2024-01-30T10:52:29;16.97;;;10.00;;
6823;SDS011;58633;49.470;11.004;2024-01-30T10:54:56;13.73;;;9.10;;
6823;SDS011;58633;49.470;11.004;2024-01-30T10:57:23;16.97;;;9.97;;
6823;SDS011;58633;49.470;11.004;2024-01-30T10:59:56;17.33;;;10.40;;
6823;SDS011;58633;49.470;11.004;2024-01-30T11:02:23;23.33;;;10.37;;
6823;SDS011;58633;49.470;11.004;2024-01-30T11:04:50;17.00;;;11.10;;
6823;SDS011;58633;49.470;11.004;2024-01-30T11:07:28;19.00;;;11.17;;
6823;SDS011;58633;49.470;11.004;2024-01-30T11:12:23;15.60;;;10.63;;
6823;SDS011;58633;49.470;11.004;2024-01-30T11:20:15;13.00;;;9.27;;
6823;SDS011;58633;49.470;11.004;2024-01-30T11:22:44;15.67;;;10.20;;
6823;SDS011;58633;49.470;11.004;2024-01-30T11:25:11;15.60;;;10.03;;
6823;SDS011;58633;49.470;11.004;2024-01-30T11:27:38;16.17;;;9.63;;
6823;SDS011;58633;49.470;11.004;2024-01-30T11:30:04;12.73;;;9.83;;
6823;SDS011;58633;49.470;11.004;2024-01-30T11:32:30;14.17;;;9.20;;
6823;SDS011;58633;49.470;11.004;2024-01-30T11:34:56;14.33;;;9.77;;
6823;SDS011;58633;49.470;11.004;2024-01-30T11:37:24;13.33;;;9.00;;
6823;SDS011;58633;49.470;11.004;2024-01-30T11:39:52;16.30;;;9.93;;
6823;SDS011;58633;49.470;11.004;2024-01-30T11:42:19;23.13;;;10.10;;
6823;SDS011;58633;49.470;11.004;2024-01-30T11:44:48;19.17;;;9.90;;
6823;SDS011;58633;49.470;11.004;2024-01-30T11:47:14;16.37;;;9.20;;
6823;SDS011;58633;49.470;11.004;2024-01-30T11:49:40;15.47;;;9.37;;
6823;SDS011;58633;49.470;11.004;2024-01-30T11:52:06;19.93;;;10.03;;
6823;SDS011;58633;49.470;11.004;2024-01-30T11:54:32;14.33;;;10.40;;
6823;SDS011;58633;49.470;11.004;2024-01-30T11:56:57;16.80;;;10.27;;
6823;SDS011;58633;49.470;11.004;2024-01-30T11:59:23;28.03;;;11.47;;
6823;SDS011;58633;49.470;11.004;2024-01-30T12:01:49;39.30;;;11.50;;
6823;SDS011;58633;49.470;11.004;2024-01-30T12:04:17;19.43;;;10.57;;
6823;SDS011;58633;49.470;11.004;2024-01-30T12:06:42;20.33;;;9.57;;
6823;SDS011;58633;49.470;11.004;2024-01-30T12:09:08;24.77;;;10.17;;
6823;SDS011;58633;49.470;11.004;2024-01-30T12:11:47;20.07;;;9.77;;
6823;SDS011;58633;49.470;11.004;2024-01-30T12:14:14;21.43;;;10.70;;
6823;SDS011;58633;49.470;11.004;2024-01-30T12:16:42;38.00;;;10.97;;
6823;SDS011;58633;49.470;11.004;2024-01-30T12:19:07;32.87;;;12.03;;
6823;SDS011;58633;49.470;11.004;2024-01-30T12:21:33;28.97;;;11.00;;
6823;SDS011;58633;49.470;11.004;2024-01-30T12:23:59;17.87;;;10.30;;
6823;SDS011;58633;49.470;11.004;2024-01-30T12:26:25;18.77;;;10.13;;
6823;SDS011;58633;49.470;11.004;2024-01-30T12:28:54;17.33;;;9.43;;
6823;SDS011;58633;49.470;11.004;2024-01-30T12:31:31;14.87;;;9.80;;
6823;SDS011;58633;49.470;11.004;2024-01-30T12:33:59;15.43;;;10.07;;
6823;SDS011;58633;49.470;11.004;2024-01-30T12:36:25;18.20;;;9.77;;
6823;SDS011;58633;49.470;11.004;2024-01-30T12:38:51;19.67;;;9.87;;
6823;SDS011;58633;49.470;11.004;2024-01-30T12:41:17;22.60;;;9.60;;
6823;SDS011;58633;49.470;11.004;2024-01-30T12:43:43;18.47;;;9.77;;
6823;SDS011;58633;49.470;11.004;2024-01-30T12:46:08;17.80;;;9.73;;
6823;SDS011;58633;49.470;11.004;2024-01-30T12:48:34;16.67;;;9.43;;
6823;SDS011;58633;49.470;11.004;2024-01-30T12:51:00;26.27;;;10.33;;
6823;SDS011;58633;49.470;11.004;2024-01-30T12:53:26;25.00;;;11.30;;
6823;SDS011;58633;49.470;11.004;2024-01-30T12:55:51;35.85;;;11.02;;
6823;SDS011;58633;49.470;11.004;2024-01-30T12:58:19;50.10;;;12.50;;
6823;SDS011;58633;49.470;11.004;2024-01-30T13:00:44;27.90;;;10.63;;
6823;SDS011;58633;49.470;11.004;2024-01-30T13:03:10;23.90;;;10.30;;
6823;SDS011;58633;49.470;11.004;2024-01-30T13:05:36;28.95;;;10.43;;
6823;SDS011;58633;49.470;11.004;2024-01-30T13:08:02;20.25;;;9.32;;
6823;SDS011;58633;49.470;11.004;2024-01-30T13:10:28;20.50;;;9.73;;
6823;SDS011;58633;49.470;11.004;2024-01-30T13:12:53;14.13;;;9.03;;
6823;SDS011;58633;49.470;11.004;2024-01-30T13:15:19;16.17;;;9.00;;
6823;SDS011;58633;49.470;11.004;2024-01-30T13:17:45;17.02;;;9.00;;
6823;SDS011;58633;49.470;11.004;2024-01-30T13:20:12;18.63;;;9.50;;
6823;SDS011;58633;49.470;11.004;2024-01-30T13:22:41;13.95;;;9.88;;
6823;SDS011;58633;49.470;11.004;2024-01-30T13:25:08;14.30;;;8.88;;
6823;SDS011;58633;49.470;11.004;2024-01-30T13:27:33;15.57;;;9.20;;
6823;SDS011;58633;49.470;11.004;2024-01-30T13:29:59;16.50;;;9.60;;
6823;SDS011;58633;49.470;11.004;2024-01-30T13:32:25;16.25;;;9.02;;
6823;SDS011;58633;49.470;11.004;2024-01-30T13:34:50;17.35;;;9.52;;
6823;SDS011;58633;49.470;11.004;2024-01-30T13:37:16;20.42;;;9.38;;
6823;SDS011;58633;49.470;11.004;2024-01-30T13:39:42;14.15;;;9.40;;
6823;SDS011;58633;49.470;11.004;2024-01-30T13:42:07;14.48;;;8.90;;
6823;SDS011;58633;49.470;11.004;2024-01-30T13:44:33;14.27;;;10.05;;
6823;SDS011;58633;49.470;11.004;2024-01-30T13:47:00;15.75;;;9.38;;
6823;SDS011;58633;49.470;11.004;2024-01-30T13:49:25;18.30;;;10.18;;
6823;SDS011;58633;49.470;11.004;2024-01-30T13:51:52;14.82;;;9.52;;
6823;SDS011;58633;49.470;11.004;2024-01-30T13:54:17;15.35;;;9.50;;
6823;SDS011;58633;49.470;11.004;2024-01-30T13:56:43;16.38;;;9.57;;
6823;SDS011;58633;49.470;11.004;2024-01-30T13:59:08;13.70;;;9.40;;
6823;SDS011;58633;49.470;11.004;2024-01-30T14:01:34;12.95;;;9.25;;
6823;SDS011;58633;49.470;11.004;2024-01-30T14:03:59;17.60;;;9.77;;
6823;SDS011;58633;49.470;11.004;2024-01-30T14:06:25;13.27;;;9.27;;
6823;SDS011;58633;49.470;11.004;2024-01-30T14:08:50;16.08;;;9.25;;
6823;SDS011;58633;49.470;11.004;2024-01-30T14:11:16;14.05;;;9.13;;
6823;SDS011;58633;49.470;11.004;2024-01-30T14:13:41;19.75;;;9.38;;
6823;SDS011;58633;49.470;11.004;2024-01-30T14:16:07;13.35;;;8.93;;
6823;SDS011;58633;49.470;11.004;2024-01-30T14:18:32;12.88;;;8.40;;
6823;SDS011;58633;49.470;11.004;2024-01-30T14:20:58;13.50;;;8.68;;
6823;SDS011;58633;49.470;11.004;2024-01-30T14:23:23;15.43;;;10.05;;
6823;SDS011;58633;49.470;11.004;2024-01-30T14:25:49;22.13;;;12.45;;
6823;SDS011;58633;49.470;11.004;2024-01-30T14:28:16;15.90;;;9.88;;
6823;SDS011;58633;49.470;11.004;2024-01-30T14:30:42;19.17;;;10.85;;
6823;SDS011;58633;49.470;11.004;2024-01-30T14:33:07;13.50;;;8.60;;
6823;SDS011;58633;49.470;11.004;2024-01-30T14:35:33;19.48;;;9.27;;